sensor_id;sensor_type;location;lat;lon;timestamp;P1;durP1;ratioP1;P2;durP2;ratioP2
24787;SDS011;12883;52.662;5.196;2022-07-06T00:01:01;3.10;;;3.10;;
24787;SDS011;12883;52.662;5.196;2022-07-06T00:03:26;2.83;;;2.83;;
24787;SDS011;12883;52.662;5.196;2022-07-06T00:05:51;5.97;;;5.97;;
24787;SDS011;12883;52.662;5.196;2022-07-06T00:08:17;5.73;;;5.73;;
24787;SDS011;12883;52.662;5.196;2022-07-06T00:10:42;6.80;;;6.80;;
24787;SDS011;12883;52.662;5.196;2022-07-06T00:13:08;6.37;;;6.37;;
24787;SDS011;12883;52.662;5.196;2022-07-06T00:15:34;6.40;;;6.40;;
24787;SDS011;12883;52.662;5.196;2022-07-06T00:17:59;3.20;;;3.20;;
24787;SDS011;12883;52.662;5.196;2022-07-06T00:20:24;6.70;;;6.70;;
24787;SDS011;12883;52.662;5.196;2022-07-06T00:22:50;4.73;;;4.73;;
24787;SDS011;12883;52.662;5.196;2022-07-06T00:25:15;6.40;;;6.40;;
24787;SDS011;12883;52.662;5.196;2022-07-06T00:27:40;5.07;;;5.07;;
24787;SDS011;12883;52.662;5.196;2022-07-06T00:30:06;5.47;;;5.47;;
24787;SDS011;12883;52.662;5.196;2022-07-06T00:32:32;5.20;;;5.20;;
24787;SDS011;12883;52.662;5.196;2022-07-06T00:34:57;2.97;;;2.97;;
24787;SDS011;12883;52.662;5.196;2022-07-06T00:37:23;3.10;;;3.10;;
24787;SDS011;12883;52.662;5.196;2022-07-06T00:39:48;7.73;;;7.73;;
24787;SDS011;12883;52.662;5.196;2022-07-06T00:42:14;6.93;;;6.93;;
24787;SDS011;12883;52.662;5.196;2022-07-06T00:44:39;7.10;;;7.10;;
24787;SDS011;12883;52.662;5.196;2022-07-06T00:47:05;3.13;;;3.13;;
24787;SDS011;12883;52.662;5.196;2022-07-06T00:49:30;4.20;;;4.20;;
24787;SDS011;12883;52.662;5.196;2022-07-06T00:52:14;4.63;;;4.63;;
24787;SDS011;12883;52.662;5.196;2022-07-06T00:54:41;5.80;;;5.80;;
24787;SDS011;12883;52.662;5.196;2022-07-06T00:57:08;5.20;;;5.20;;
24787;SDS011;12883;52.662;5.196;2022-07-06T00:59:34;6.07;;;6.07;;
24787;SDS011;12883;52.662;5.196;2022-07-06T01:02:00;7.37;;;7.37;;
24787;SDS011;12883;52.662;5.196;2022-07-06T01:04:26;6.97;;;6.97;;
24787;SDS011;12883;52.662;5.196;2022-07-06T01:06:51;6.43;;;6.43;;
24787;SDS011;12883;52.662;5.196;2022-07-06T01:09:18;2.73;;;2.73;;
24787;SDS011;12883;52.662;5.196;2022-07-06T01:11:43;4.23;;;4.23;;
24787;SDS011;12883;52.662;5.196;2022-07-06T01:14:09;6.73;;;6.73;;
24787;SDS011;12883;52.662;5.196;2022-07-06T01:16:35;2.60;;;2.60;;
24787;SDS011;12883;52.662;5.196;2022-07-06T01:19:02;7.23;;;7.23;;
24787;SDS011;12883;52.662;5.196;2022-07-06T01:21:27;2.23;;;2.23;;
24787;SDS011;12883;52.662;5.196;2022-07-06T01:23:52;2.43;;;2.43;;
24787;SDS011;12883;52.662;5.196;2022-07-06T01:26:19;2.40;;;2.40;;
24787;SDS011;12883;52.662;5.196;2022-07-06T01:28:49;8.17;;;8.17;;
24787;SDS011;12883;52.662;5.196;2022-07-06T01:31:19;7.50;;;7.50;;
24787;SDS011;12883;52.662;5.196;2022-07-06T01:33:46;2.43;;;2.43;;
24787;SDS011;12883;52.662;5.196;2022-07-06T01:36:13;7.43;;;7.43;;
24787;SDS011;12883;52.662;5.196;2022-07-06T01:38:45;7.97;;;7.97;;
24787;SDS011;12883;52.662;5.196;2022-07-06T01:41:11;3.93;;;3.93;;
24787;SDS011;12883;52.662;5.196;2022-07-06T01:43:37;8.03;;;8.03;;
24787;SDS011;12883;52.662;5.196;2022-07-06T01:46:02;6.80;;;6.80;;
24787;SDS011;12883;52.662;5.196;2022-07-06T01:48:27;8.07;;;8.07;;
24787;SDS011;12883;52.662;5.196;2022-07-06T01:50:53;4.60;;;4.60;;
24787;SDS011;12883;52.662;5.196;2022-07-06T01:53:18;2.67;;;2.67;;
24787;SDS011;12883;52.662;5.196;2022-07-06T01:55:43;6.97;;;6.97;;
24787;SDS011;12883;52.662;5.196;2022-07-06T01:58:09;6.40;;;6.40;;
24787;SDS011;12883;52.662;5.196;2022-07-06T02:00:34;8.57;;;8.57;;
24787;SDS011;12883;52.662;5.196;2022-07-06T02:02:59;7.03;;;7.03;;
24787;SDS011;12883;52.662;5.196;2022-07-06T02:05:25;2.70;;;2.70;;
24787;SDS011;12883;52.662;5.196;2022-07-06T02:07:50;6.97;;;6.97;;
24787;SDS011;12883;52.662;5.196;2022-07-06T02:10:16;3.00;;;3.00;;
24787;SDS011;12883;52.662;5.196;2022-07-06T02:12:41;2.57;;;2.57;;
24787;SDS011;12883;52.662;5.196;2022-07-06T02:15:06;9.43;;;9.43;;
24787;SDS011;12883;52.662;5.196;2022-07-06T02:17:32;5.17;;;5.17;;
24787;SDS011;12883;52.662;5.196;2022-07-06T02:19:58;8.37;;;8.37;;
24787;SDS011;12883;52.662;5.196;2022-07-06T02:22:23;8.07;;;8.07;;
24787;SDS011;12883;52.662;5.196;2022-07-06T02:24:48;3.03;;;3.03;;
24787;SDS011;12883;52.662;5.196;2022-07-06T02:27:13;7.37;;;7.37;;
24787;SDS011;12883;52.662;5.196;2022-07-06T02:29:39;4.67;;;4.67;;
24787;SDS011;12883;52.662;5.196;2022-07-06T02:32:04;3.63;;;3.63;;
24787;SDS011;12883;52.662;5.196;2022-07-06T02:34:30;8.33;;;8.33;;
24787;SDS011;12883;52.662;5.196;2022-07-06T02:36:55;4.27;;;4.27;;
24787;SDS011;12883;52.662;5.196;2022-07-06T02:39:21;6.77;;;6.77;;
24787;SDS011;12883;52.662;5.196;2022-07-06T02:41:46;8.47;;;8.47;;
24787;SDS011;12883;52.662;5.196;2022-07-06T02:44:11;3.63;;;3.63;;
24787;SDS011;12883;52.662;5.196;2022-07-06T02:46:37;7.27;;;7.27;;
24787;SDS011;12883;52.662;5.196;2022-07-06T02:49:02;6.47;;;6.47;;
24787;SDS011;12883;52.662;5.196;2022-07-06T02:51:27;7.60;;;7.60;;
24787;SDS011;12883;52.662;5.196;2022-07-06T02:53:53;6.67;;;6.67;;
24787;SDS011;12883;52.662;5.196;2022-07-06T02:56:18;7.50;;;7.50;;
24787;SDS011;12883;52.662;5.196;2022-07-06T02:58:43;6.17;;;6.17;;
24787;SDS011;12883;52.662;5.196;2022-07-06T03:01:09;7.90;;;7.90;;
24787;SDS011;12883;52.662;5.196;2022-07-06T03:03:34;6.40;;;6.40;;
24787;SDS011;12883;52.662;5.196;2022-07-06T03:05:59;7.17;;;7.17;;
24787;SDS011;12883;52.662;5.196;2022-07-06T03:08:25;2.77;;;2.77;;
24787;SDS011;12883;52.662;5.196;2022-07-06T03:10:50;6.73;;;6.73;;
24787;SDS011;12883;52.662;5.196;2022-07-06T03:13:15;6.53;;;6.53;;
24787;SDS011;12883;52.662;5.196;2022-07-06T03:15:41;6.37;;;6.37;;
24787;SDS011;12883;52.662;5.196;2022-07-06T03:18:06;6.57;;;6.57;;
24787;SDS011;12883;52.662;5.196;2022-07-06T03:20:31;2.90;;;2.90;;
24787;SDS011;12883;52.662;5.196;2022-07-06T03:22:57;7.20;;;7.20;;
24787;SDS011;12883;52.662;5.196;2022-07-06T03:25:22;7.07;;;7.07;;
24787;SDS011;12883;52.662;5.196;2022-07-06T03:27:48;8.57;;;8.57;;
24787;SDS011;12883;52.662;5.196;2022-07-06T03:30:13;5.57;;;5.57;;
24787;SDS011;12883;52.662;5.196;2022-07-06T03:32:39;8.97;;;8.97;;
24787;SDS011;12883;52.662;5.196;2022-07-06T03:35:04;7.93;;;7.93;;
24787;SDS011;12883;52.662;5.196;2022-07-06T03:37:30;3.00;;;3.00;;
24787;SDS011;12883;52.662;5.196;2022-07-06T03:39:55;2.70;;;2.70;;
24787;SDS011;12883;52.662;5.196;2022-07-06T03:42:20;3.43;;;3.43;;
24787;SDS011;12883;52.662;5.196;2022-07-06T03:44:46;8.40;;;8.40;;
24787;SDS011;12883;52.662;5.196;2022-07-06T03:47:11;7.33;;;7.33;;
24787;SDS011;12883;52.662;5.196;2022-07-06T03:49:36;8.10;;;8.10;;
24787;SDS011;12883;52.662;5.196;2022-07-06T03:52:02;8.97;;;8.97;;
24787;SDS011;12883;52.662;5.196;2022-07-06T03:54:28;3.53;;;3.53;;
24787;SDS011;12883;52.662;5.196;2022-07-06T03:56:53;6.90;;;6.90;;
24787;SDS011;12883;52.662;5.196;2022-07-06T03:59:18;6.53;;;6.53;;
24787;SDS011;12883;52.662;5.196;2022-07-06T04:01:44;7.40;;;7.40;;
24787;SDS011;12883;52.662;5.196;2022-07-06T04:04:09;3.70;;;3.70;;
24787;SDS011;12883;52.662;5.196;2022-07-06T04:06:34;8.00;;;8.00;;
24787;SDS011;12883;52.662;5.196;2022-07-06T04:09:00;8.50;;;8.50;;
24787;SDS011;12883;52.662;5.196;2022-07-06T04:11:25;8.00;;;8.00;;
24787;SDS011;12883;52.662;5.196;2022-07-06T04:13:51;10.20;;;10.20;;
24787;SDS011;12883;52.662;5.196;2022-07-06T04:16:16;4.77;;;4.77;;
24787;SDS011;12883;52.662;5.196;2022-07-06T04:18:42;2.83;;;2.83;;
24787;SDS011;12883;52.662;5.196;2022-07-06T04:21:07;7.43;;;7.43;;
24787;SDS011;12883;52.662;5.196;2022-07-06T04:23:32;2.70;;;2.70;;
24787;SDS011;12883;52.662;5.196;2022-07-06T04:25:58;6.33;;;6.33;;
24787;SDS011;12883;52.662;5.196;2022-07-06T04:28:23;6.80;;;6.80;;
24787;SDS011;12883;52.662;5.196;2022-07-06T04:30:49;6.73;;;6.73;;
24787;SDS011;12883;52.662;5.196;2022-07-06T04:33:14;7.77;;;7.77;;
24787;SDS011;12883;52.662;5.196;2022-07-06T04:35:39;5.10;;;5.10;;
24787;SDS011;12883;52.662;5.196;2022-07-06T04:38:05;6.37;;;6.37;;
24787;SDS011;12883;52.662;5.196;2022-07-06T04:40:30;3.30;;;3.30;;
24787;SDS011;12883;52.662;5.196;2022-07-06T04:42:56;8.00;;;8.00;;
24787;SDS011;12883;52.662;5.196;2022-07-06T04:45:21;3.23;;;3.23;;
24787;SDS011;12883;52.662;5.196;2022-07-06T04:47:46;3.70;;;3.70;;
24787;SDS011;12883;52.662;5.196;2022-07-06T04:50:12;8.13;;;8.13;;
24787;SDS011;12883;52.662;5.196;2022-07-06T04:52:38;3.03;;;3.03;;
24787;SDS011;12883;52.662;5.196;2022-07-06T04:55:03;8.10;;;8.10;;
24787;SDS011;12883;52.662;5.196;2022-07-06T04:57:30;7.83;;;7.83;;
24787;SDS011;12883;52.662;5.196;2022-07-06T04:59:56;6.80;;;6.80;;
24787;SDS011;12883;52.662;5.196;2022-07-06T05:02:22;6.93;;;6.93;;
24787;SDS011;12883;52.662;5.196;2022-07-06T05:04:47;9.00;;;9.00;;
24787;SDS011;12883;52.662;5.196;2022-07-06T05:07:13;9.20;;;9.20;;
24787;SDS011;12883;52.662;5.196;2022-07-06T05:09:38;4.37;;;4.37;;
24787;SDS011;12883;52.662;5.196;2022-07-06T05:12:04;3.60;;;3.60;;
24787;SDS011;12883;52.662;5.196;2022-07-06T05:14:29;8.87;;;8.87;;
24787;SDS011;12883;52.662;5.196;2022-07-06T05:16:55;8.70;;;8.70;;
24787;SDS011;12883;52.662;5.196;2022-07-06T05:19:20;7.93;;;7.93;;
24787;SDS011;12883;52.662;5.196;2022-07-06T05:21:45;5.47;;;5.47;;
24787;SDS011;12883;52.662;5.196;2022-07-06T05:24:11;6.83;;;6.83;;
24787;SDS011;12883;52.662;5.196;2022-07-06T05:26:36;6.80;;;6.80;;
24787;SDS011;12883;52.662;5.196;2022-07-06T05:29:01;8.57;;;8.57;;
24787;SDS011;12883;52.662;5.196;2022-07-06T05:31:27;6.30;;;6.30;;
24787;SDS011;12883;52.662;5.196;2022-07-06T05:33:52;7.27;;;7.27;;
24787;SDS011;12883;52.662;5.196;2022-07-06T05:36:17;6.33;;;6.33;;
24787;SDS011;12883;52.662;5.196;2022-07-06T05:38:43;7.95;;;7.95;;
24787;SDS011;12883;52.662;5.196;2022-07-06T05:41:08;5.93;;;5.93;;
24787;SDS011;12883;52.662;5.196;2022-07-06T05:43:37;7.00;;;7.00;;
24787;SDS011;12883;52.662;5.196;2022-07-06T05:46:02;2.87;;;2.87;;
24787;SDS011;12883;52.662;5.196;2022-07-06T05:48:28;6.38;;;6.38;;
24787;SDS011;12883;52.662;5.196;2022-07-06T05:51:12;2.72;;;2.72;;
24787;SDS011;12883;52.662;5.196;2022-07-06T05:53:38;6.97;;;6.97;;
24787;SDS011;12883;52.662;5.196;2022-07-06T05:56:03;7.13;;;7.13;;
24787;SDS011;12883;52.662;5.196;2022-07-06T05:58:29;7.65;;;7.65;;
24787;SDS011;12883;52.662;5.196;2022-07-06T06:00:54;5.75;;;5.72;;
24787;SDS011;12883;52.662;5.196;2022-07-06T06:03:19;5.85;;;5.85;;
24787;SDS011;12883;52.662;5.196;2022-07-06T06:05:45;4.90;;;4.90;;
24787;SDS011;12883;52.662;5.196;2022-07-06T06:08:10;6.88;;;6.88;;
24787;SDS011;12883;52.662;5.196;2022-07-06T06:10:36;6.00;;;6.00;;
24787;SDS011;12883;52.662;5.196;2022-07-06T06:13:01;2.85;;;2.85;;
24787;SDS011;12883;52.662;5.196;2022-07-06T06:15:27;2.72;;;2.72;;
24787;SDS011;12883;52.662;5.196;2022-07-06T06:17:52;7.75;;;7.75;;
24787;SDS011;12883;52.662;5.196;2022-07-06T06:20:17;3.90;;;3.90;;
24787;SDS011;12883;52.662;5.196;2022-07-06T06:22:50;7.90;;;7.90;;
24787;SDS011;12883;52.662;5.196;2022-07-06T06:25:18;7.47;;;7.47;;
24787;SDS011;12883;52.662;5.196;2022-07-06T06:27:45;2.83;;;2.83;;
24787;SDS011;12883;52.662;5.196;2022-07-06T06:30:12;3.47;;;3.47;;
24787;SDS011;12883;52.662;5.196;2022-07-06T06:32:38;6.53;;;6.53;;
24787;SDS011;12883;52.662;5.196;2022-07-06T06:35:04;6.95;;;6.95;;
24787;SDS011;12883;52.662;5.196;2022-07-06T06:37:31;4.25;;;4.25;;
24787;SDS011;12883;52.662;5.196;2022-07-06T06:39:56;8.40;;;8.40;;
24787;SDS011;12883;52.662;5.196;2022-07-06T06:42:22;2.88;;;2.88;;
24787;SDS011;12883;52.662;5.196;2022-07-06T06:44:47;7.68;;;7.68;;
24787;SDS011;12883;52.662;5.196;2022-07-06T06:47:12;9.38;;;9.38;;
24787;SDS011;12883;52.662;5.196;2022-07-06T06:49:38;8.65;;;8.65;;
24787;SDS011;12883;52.662;5.196;2022-07-06T06:52:03;8.73;;;8.73;;
24787;SDS011;12883;52.662;5.196;2022-07-06T06:54:29;2.95;;;2.95;;
24787;SDS011;12883;52.662;5.196;2022-07-06T06:56:54;8.50;;;8.50;;
24787;SDS011;12883;52.662;5.196;2022-07-06T06:59:19;4.35;;;4.35;;
24787;SDS011;12883;52.662;5.196;2022-07-06T07:01:45;7.82;;;7.82;;
24787;SDS011;12883;52.662;5.196;2022-07-06T07:04:10;9.38;;;9.38;;
24787;SDS011;12883;52.662;5.196;2022-07-06T07:06:36;8.63;;;8.63;;
24787;SDS011;12883;52.662;5.196;2022-07-06T07:09:02;3.53;;;3.53;;
24787;SDS011;12883;52.662;5.196;2022-07-06T07:11:27;9.68;;;9.68;;
24787;SDS011;12883;52.662;5.196;2022-07-06T07:13:53;5.97;;;5.97;;
24787;SDS011;12883;52.662;5.196;2022-07-06T07:16:18;7.90;;;7.90;;
24787;SDS011;12883;52.662;5.196;2022-07-06T07:18:43;10.32;;;10.32;;
24787;SDS011;12883;52.662;5.196;2022-07-06T07:21:09;3.13;;;3.13;;
24787;SDS011;12883;52.662;5.196;2022-07-06T07:23:34;9.82;;;9.82;;
24787;SDS011;12883;52.662;5.196;2022-07-06T07:25:59;10.57;;;10.57;;
24787;SDS011;12883;52.662;5.196;2022-07-06T07:28:25;3.28;;;3.28;;
24787;SDS011;12883;52.662;5.196;2022-07-06T07:30:50;8.93;;;8.93;;
24787;SDS011;12883;52.662;5.196;2022-07-06T07:33:15;5.88;;;5.88;;
24787;SDS011;12883;52.662;5.196;2022-07-06T07:35:41;9.75;;;9.75;;
24787;SDS011;12883;52.662;5.196;2022-07-06T07:38:06;10.60;;;10.60;;
24787;SDS011;12883;52.662;5.196;2022-07-06T07:40:32;10.88;;;10.88;;
24787;SDS011;12883;52.662;5.196;2022-07-06T07:42:58;8.52;;;8.52;;
24787;SDS011;12883;52.662;5.196;2022-07-06T07:45:23;10.85;;;10.85;;
24787;SDS011;12883;52.662;5.196;2022-07-06T07:47:49;8.77;;;8.77;;
24787;SDS011;12883;52.662;5.196;2022-07-06T07:50:14;9.73;;;9.73;;
24787;SDS011;12883;52.662;5.196;2022-07-06T07:52:40;8.55;;;8.55;;
24787;SDS011;12883;52.662;5.196;2022-07-06T07:55:05;7.32;;;7.32;;
24787;SDS011;12883;52.662;5.196;2022-07-06T07:57:31;3.58;;;3.58;;
24787;SDS011;12883;52.662;5.196;2022-07-06T07:59:56;10.60;;;10.60;;
24787;SDS011;12883;52.662;5.196;2022-07-06T08:02:22;10.23;;;10.23;;
24787;SDS011;12883;52.662;5.196;2022-07-06T08:04:47;11.40;;;11.40;;
24787;SDS011;12883;52.662;5.196;2022-07-06T08:07:12;10.25;;;10.25;;
24787;SDS011;12883;52.662;5.196;2022-07-06T08:09:38;10.55;;;10.55;;
24787;SDS011;12883;52.662;5.196;2022-07-06T08:12:04;9.75;;;9.75;;
24787;SDS011;12883;52.662;5.196;2022-07-06T08:14:30;11.80;;;11.80;;
24787;SDS011;12883;52.662;5.196;2022-07-06T08:16:55;6.20;;;6.20;;
24787;SDS011;12883;52.662;5.196;2022-07-06T08:19:20;11.73;;;11.73;;
24787;SDS011;12883;52.662;5.196;2022-07-06T08:21:46;9.95;;;9.95;;
24787;SDS011;12883;52.662;5.196;2022-07-06T08:24:11;9.07;;;9.07;;
24787;SDS011;12883;52.662;5.196;2022-07-06T08:26:37;9.95;;;9.95;;
24787;SDS011;12883;52.662;5.196;2022-07-06T08:29:02;2.83;;;2.83;;
24787;SDS011;12883;52.662;5.196;2022-07-06T08:31:28;8.60;;;8.60;;
24787;SDS011;12883;52.662;5.196;2022-07-06T08:33:54;8.63;;;8.63;;
24787;SDS011;12883;52.662;5.196;2022-07-06T08:36:21;12.43;;;12.43;;
24787;SDS011;12883;52.662;5.196;2022-07-06T08:38:47;11.30;;;11.30;;
24787;SDS011;12883;52.662;5.196;2022-07-06T08:41:14;10.82;;;10.82;;
24787;SDS011;12883;52.662;5.196;2022-07-06T08:43:41;9.68;;;9.68;;
24787;SDS011;12883;52.662;5.196;2022-07-06T08:46:07;10.63;;;10.63;;
24787;SDS011;12883;52.662;5.196;2022-07-06T08:48:36;9.43;;;9.43;;
24787;SDS011;12883;52.662;5.196;2022-07-06T08:51:04;11.70;;;11.70;;
24787;SDS011;12883;52.662;5.196;2022-07-06T08:53:29;9.80;;;9.80;;
24787;SDS011;12883;52.662;5.196;2022-07-06T08:55:55;11.60;;;11.60;;
24787;SDS011;12883;52.662;5.196;2022-07-06T08:58:20;13.00;;;13.00;;
24787;SDS011;12883;52.662;5.196;2022-07-06T09:00:49;11.98;;;11.98;;
24787;SDS011;12883;52.662;5.196;2022-07-06T09:03:14;12.57;;;12.57;;
24787;SDS011;12883;52.662;5.196;2022-07-06T09:05:40;14.07;;;14.05;;
24787;SDS011;12883;52.662;5.196;2022-07-06T09:08:08;11.20;;;11.20;;
24787;SDS011;12883;52.662;5.196;2022-07-06T09:10:34;8.80;;;8.80;;
24787;SDS011;12883;52.662;5.196;2022-07-06T09:13:03;10.73;;;10.73;;
24787;SDS011;12883;52.662;5.196;2022-07-06T09:15:33;12.20;;;12.20;;
24787;SDS011;12883;52.662;5.196;2022-07-06T09:18:00;14.13;;;14.13;;
24787;SDS011;12883;52.662;5.196;2022-07-06T09:20:26;7.00;;;7.00;;
24787;SDS011;12883;52.662;5.196;2022-07-06T09:22:56;4.50;;;4.50;;
24787;SDS011;12883;52.662;5.196;2022-07-06T09:25:24;10.23;;;10.23;;
24787;SDS011;12883;52.662;5.196;2022-07-06T09:27:50;9.98;;;9.98;;
24787;SDS011;12883;52.662;5.196;2022-07-06T09:30:19;11.88;;;11.88;;
24787;SDS011;12883;52.662;5.196;2022-07-06T09:32:47;11.45;;;11.45;;
24787;SDS011;12883;52.662;5.196;2022-07-06T09:35:22;10.27;;;10.27;;
24787;SDS011;12883;52.662;5.196;2022-07-06T09:38:11;4.38;;;4.38;;
24787;SDS011;12883;52.662;5.196;2022-07-06T09:40:39;9.80;;;9.80;;
24787;SDS011;12883;52.662;5.196;2022-07-06T09:43:18;11.23;;;11.23;;
24787;SDS011;12883;52.662;5.196;2022-07-06T09:45:54;12.02;;;12.02;;
24787;SDS011;12883;52.662;5.196;2022-07-06T09:50:57;12.55;;;12.55;;
24787;SDS011;12883;52.662;5.196;2022-07-06T09:53:24;9.75;;;9.75;;
24787;SDS011;12883;52.662;5.196;2022-07-06T09:55:51;12.38;;;12.38;;
24787;SDS011;12883;52.662;5.196;2022-07-06T09:58:20;12.90;;;12.90;;
24787;SDS011;12883;52.662;5.196;2022-07-06T10:00:47;10.98;;;10.98;;
24787;SDS011;12883;52.662;5.196;2022-07-06T10:03:14;11.88;;;11.88;;
24787;SDS011;12883;52.662;5.196;2022-07-06T10:05:41;11.95;;;11.95;;
24787;SDS011;12883;52.662;5.196;2022-07-06T10:08:08;12.38;;;12.38;;
24787;SDS011;12883;52.662;5.196;2022-07-06T10:10:35;11.52;;;11.52;;
24787;SDS011;12883;52.662;5.196;2022-07-06T10:13:02;8.05;;;8.05;;
24787;SDS011;12883;52.662;5.196;2022-07-06T10:15:30;11.90;;;11.90;;
24787;SDS011;12883;52.662;5.196;2022-07-06T10:17:59;16.58;;;16.58;;
24787;SDS011;12883;52.662;5.196;2022-07-06T10:20:29;16.58;;;16.58;;
24787;SDS011;12883;52.662;5.196;2022-07-06T10:22:58;12.38;;;12.38;;
24787;SDS011;12883;52.662;5.196;2022-07-06T10:25:25;8.48;;;8.48;;
24787;SDS011;12883;52.662;5.196;2022-07-06T10:27:51;13.23;;;13.23;;
24787;SDS011;12883;52.662;5.196;2022-07-06T10:30:18;14.55;;;14.55;;
24787;SDS011;12883;52.662;5.196;2022-07-06T10:32:44;7.85;;;7.85;;
24787;SDS011;12883;52.662;5.196;2022-07-06T10:35:12;12.23;;;12.23;;
24787;SDS011;12883;52.662;5.196;2022-07-06T10:37:38;10.82;;;10.82;;
24787;SDS011;12883;52.662;5.196;2022-07-06T10:40:04;14.38;;;14.38;;
24787;SDS011;12883;52.662;5.196;2022-07-06T10:42:49;15.05;;;15.05;;
24787;SDS011;12883;52.662;5.196;2022-07-06T10:45:50;12.20;;;12.20;;
24787;SDS011;12883;52.662;5.196;2022-07-06T10:50:40;12.00;;;12.00;;
24787;SDS011;12883;52.662;5.196;2022-07-06T10:53:12;13.05;;;13.05;;
24787;SDS011;12883;52.662;5.196;2022-07-06T10:55:41;15.68;;;15.68;;
24787;SDS011;12883;52.662;5.196;2022-07-06T10:58:09;13.00;;;13.00;;
24787;SDS011;12883;52.662;5.196;2022-07-06T11:00:51;15.13;;;15.13;;
24787;SDS011;12883;52.662;5.196;2022-07-06T11:06:15;12.48;;;12.48;;
24787;SDS011;12883;52.662;5.196;2022-07-06T11:11:16;13.15;;;13.15;;
24787;SDS011;12883;52.662;5.196;2022-07-06T11:16:27;11.95;;;11.95;;
24787;SDS011;12883;52.662;5.196;2022-07-06T11:19:04;13.35;;;13.35;;
24787;SDS011;12883;52.662;5.196;2022-07-06T11:21:55;11.82;;;11.82;;
24787;SDS011;12883;52.662;5.196;2022-07-06T11:26:54;14.60;;;14.60;;
24787;SDS011;12883;52.662;5.196;2022-07-06T11:29:21;16.17;;;16.17;;
24787;SDS011;12883;52.662;5.196;2022-07-06T11:31:50;13.90;;;13.90;;
24787;SDS011;12883;52.662;5.196;2022-07-06T11:34:22;13.32;;;13.32;;
24787;SDS011;12883;52.662;5.196;2022-07-06T11:36:57;10.75;;;10.75;;
24787;SDS011;12883;52.662;5.196;2022-07-06T11:39:31;12.38;;;12.38;;
24787;SDS011;12883;52.662;5.196;2022-07-06T11:41:58;11.57;;;11.57;;
24787;SDS011;12883;52.662;5.196;2022-07-06T11:44:24;12.80;;;12.80;;
24787;SDS011;12883;52.662;5.196;2022-07-06T11:46:50;10.93;;;10.93;;
24787;SDS011;12883;52.662;5.196;2022-07-06T11:49:16;10.38;;;10.38;;
24787;SDS011;12883;52.662;5.196;2022-07-06T11:51:42;9.93;;;9.93;;
24787;SDS011;12883;52.662;5.196;2022-07-06T11:54:17;11.80;;;11.80;;
24787;SDS011;12883;52.662;5.196;2022-07-06T11:56:47;12.90;;;12.90;;
24787;SDS011;12883;52.662;5.196;2022-07-06T11:59:27;14.25;;;14.25;;
24787;SDS011;12883;52.662;5.196;2022-07-06T12:02:15;11.52;;;11.52;;
24787;SDS011;12883;52.662;5.196;2022-07-06T12:04:42;13.57;;;13.57;;
24787;SDS011;12883;52.662;5.196;2022-07-06T12:07:10;14.18;;;14.18;;
24787;SDS011;12883;52.662;5.196;2022-07-06T12:09:38;11.85;;;11.85;;
24787;SDS011;12883;52.662;5.196;2022-07-06T12:12:05;12.77;;;12.77;;
24787;SDS011;12883;52.662;5.196;2022-07-06T12:14:32;12.18;;;12.18;;
24787;SDS011;12883;52.662;5.196;2022-07-06T12:17:03;12.80;;;12.80;;
24787;SDS011;12883;52.662;5.196;2022-07-06T12:19:34;12.98;;;12.98;;
24787;SDS011;12883;52.662;5.196;2022-07-06T12:22:00;10.43;;;10.43;;
24787;SDS011;12883;52.662;5.196;2022-07-06T12:24:27;12.13;;;12.13;;
24787;SDS011;12883;52.662;5.196;2022-07-06T12:26:55;12.48;;;12.48;;
24787;SDS011;12883;52.662;5.196;2022-07-06T12:29:21;12.00;;;12.00;;
24787;SDS011;12883;52.662;5.196;2022-07-06T12:34:22;8.65;;;8.65;;
24787;SDS011;12883;52.662;5.196;2022-07-06T12:36:50;11.43;;;11.43;;
24787;SDS011;12883;52.662;5.196;2022-07-06T12:39:27;11.65;;;11.65;;
24787;SDS011;12883;52.662;5.196;2022-07-06T12:41:54;10.75;;;10.75;;
24787;SDS011;12883;52.662;5.196;2022-07-06T12:44:24;10.68;;;10.68;;
24787;SDS011;12883;52.662;5.196;2022-07-06T12:46:50;10.35;;;10.35;;
24787;SDS011;12883;52.662;5.196;2022-07-06T12:49:27;9.55;;;9.55;;
24787;SDS011;12883;52.662;5.196;2022-07-06T12:54:18;9.02;;;9.02;;
24787;SDS011;12883;52.662;5.196;2022-07-06T12:56:57;9.95;;;9.95;;
24787;SDS011;12883;52.662;5.196;2022-07-06T12:59:27;8.77;;;8.77;;
24787;SDS011;12883;52.662;5.196;2022-07-06T13:01:54;8.23;;;8.23;;
24787;SDS011;12883;52.662;5.196;2022-07-06T13:04:24;9.05;;;9.05;;
24787;SDS011;12883;52.662;5.196;2022-07-06T13:06:52;9.93;;;9.93;;
24787;SDS011;12883;52.662;5.196;2022-07-06T13:09:17;9.23;;;9.23;;
24787;SDS011;12883;52.662;5.196;2022-07-06T13:11:44;7.93;;;7.93;;
24787;SDS011;12883;52.662;5.196;2022-07-06T13:14:11;7.07;;;7.07;;
24787;SDS011;12883;52.662;5.196;2022-07-06T13:16:37;9.38;;;9.38;;
24787;SDS011;12883;52.662;5.196;2022-07-06T13:19:02;4.93;;;4.93;;
24787;SDS011;12883;52.662;5.196;2022-07-06T13:21:28;7.20;;;7.20;;
24787;SDS011;12883;52.662;5.196;2022-07-06T13:23:53;8.27;;;8.27;;
24787;SDS011;12883;52.662;5.196;2022-07-06T13:26:19;7.80;;;7.80;;
24787;SDS011;12883;52.662;5.196;2022-07-06T13:28:44;7.38;;;7.38;;
24787;SDS011;12883;52.662;5.196;2022-07-06T13:31:10;7.10;;;7.10;;
24787;SDS011;12883;52.662;5.196;2022-07-06T13:33:35;7.70;;;7.70;;
24787;SDS011;12883;52.662;5.196;2022-07-06T13:36:01;5.10;;;5.10;;
24787;SDS011;12883;52.662;5.196;2022-07-06T13:38:26;6.25;;;6.25;;
24787;SDS011;12883;52.662;5.196;2022-07-06T13:40:52;7.43;;;7.43;;
24787;SDS011;12883;52.662;5.196;2022-07-06T13:43:18;6.95;;;6.95;;
24787;SDS011;12883;52.662;5.196;2022-07-06T13:45:44;5.30;;;5.30;;
24787;SDS011;12883;52.662;5.196;2022-07-06T13:48:11;7.65;;;7.65;;
24787;SDS011;12883;52.662;5.196;2022-07-06T13:50:36;8.95;;;8.95;;
24787;SDS011;12883;52.662;5.196;2022-07-06T13:53:02;4.30;;;4.30;;
24787;SDS011;12883;52.662;5.196;2022-07-06T13:55:27;3.58;;;3.58;;
24787;SDS011;12883;52.662;5.196;2022-07-06T13:57:53;7.75;;;7.75;;
24787;SDS011;12883;52.662;5.196;2022-07-06T14:00:18;7.15;;;7.15;;
24787;SDS011;12883;52.662;5.196;2022-07-06T14:02:44;7.22;;;7.22;;
24787;SDS011;12883;52.662;5.196;2022-07-06T14:05:10;8.15;;;8.15;;
24787;SDS011;12883;52.662;5.196;2022-07-06T14:07:36;7.32;;;7.32;;
24787;SDS011;12883;52.662;5.196;2022-07-06T14:10:01;8.60;;;8.60;;
24787;SDS011;12883;52.662;5.196;2022-07-06T14:12:28;6.75;;;6.75;;
24787;SDS011;12883;52.662;5.196;2022-07-06T14:14:53;8.80;;;8.80;;
24787;SDS011;12883;52.662;5.196;2022-07-06T14:17:18;5.25;;;5.25;;
24787;SDS011;12883;52.662;5.196;2022-07-06T14:19:44;8.35;;;8.35;;
24787;SDS011;12883;52.662;5.196;2022-07-06T14:22:09;9.88;;;9.88;;
24787;SDS011;12883;52.662;5.196;2022-07-06T14:24:35;5.40;;;5.40;;
24787;SDS011;12883;52.662;5.196;2022-07-06T14:27:00;7.60;;;7.60;;
24787;SDS011;12883;52.662;5.196;2022-07-06T14:29:26;6.78;;;6.78;;
24787;SDS011;12883;52.662;5.196;2022-07-06T14:31:51;6.28;;;6.28;;
24787;SDS011;12883;52.662;5.196;2022-07-06T14:34:17;6.90;;;6.90;;
24787;SDS011;12883;52.662;5.196;2022-07-06T14:36:42;4.45;;;4.45;;
24787;SDS011;12883;52.662;5.196;2022-07-06T14:39:07;3.80;;;3.80;;
24787;SDS011;12883;52.662;5.196;2022-07-06T14:41:33;7.32;;;7.32;;
24787;SDS011;12883;52.662;5.196;2022-07-06T14:44:00;6.70;;;6.70;;
24787;SDS011;12883;52.662;5.196;2022-07-06T14:46:25;8.45;;;8.45;;
24787;SDS011;12883;52.662;5.196;2022-07-06T14:48:51;7.95;;;7.95;;
24787;SDS011;12883;52.662;5.196;2022-07-06T14:51:16;4.22;;;4.22;;
24787;SDS011;12883;52.662;5.196;2022-07-06T14:53:41;7.90;;;7.90;;
24787;SDS011;12883;52.662;5.196;2022-07-06T14:56:07;8.20;;;8.20;;
24787;SDS011;12883;52.662;5.196;2022-07-06T14:58:33;8.55;;;8.55;;